Wolford, Virginia
Current Conditions -  °F | °C
As of 10:35 AM on Monday 22 Dec 2014 (Local Time) from KJFZ Reporting Station
Overcast Overcast  
Wind Chill: 45°   Ceiling: 3200
Heat Index: 45°   Visibility: 10mi
Dew Point: 37°   Wind: 3mph
Humidity: 73%   Direction: 110°ESE
Pressure: 30.04"   Gusts: NA
Location:  37.36°N, 81.99°W
Report Text: KJFZ 221535Z AUTO 11003KT 10SM BKN032 OVC039 07/03 A3004 RMK AO2 T00710026
Loading
Personal Weather Stations






























Interactive Weather Map New forecast layout! Learn more

10-Day Weather Forecast

Advertisements
Track Severe Weather on mobile